Time;durP1;ratioP1;P1;durP2;ratioP2;P2;SDS_P1;SDS_P2;PMS_P1;PMS_P2;Temp;Humidity;BMP_temperature;BMP_pressure;BME280_temperature;BME280_humidity;BME280_pressure;Samples;Min_cycle;Max_cycle;Signal;HPM_P1;HPM_P2
2021/12/20 00:02:23;;;;;;;12.40;9.45;;;4.80;96.70;;;;;;4950676;28;20038;-71
2021/12/20 00:04:53;;;;;;;15.30;9.43;;;4.70;96.70;;;;;;4973870;28;20133;-71
2021/12/20 00:07:21;;;;;;;13.73;9.77;;;4.60;96.70;;;;;;4955689;28;20464;-71
2021/12/20 00:09:51;;;;;;;11.95;9.13;;;4.50;96.70;;;;;;4953484;28;20512;-71
2021/12/20 00:12:19;;;;;;;12.20;9.02;;;4.60;96.70;;;;;;4949999;28;20065;-71
2021/12/20 00:14:47;;;;;;;14.10;9.52;;;4.60;96.70;;;;;;4970626;28;20177;-71
2021/12/20 00:17:16;;;;;;;14.27;9.05;;;4.70;96.70;;;;;;4971173;28;20050;-71
2021/12/20 00:19:44;;;;;;;15.07;9.27;;;4.80;96.70;;;;;;4958294;28;20054;-71
2021/12/20 00:22:12;;;;;;;13.05;9.45;;;4.70;96.70;;;;;;4950794;28;20042;-71
2021/12/20 00:24:41;;;;;;;14.10;9.85;;;4.70;96.70;;;;;;4970288;28;20042;-71
2021/12/20 00:27:13;;;;;;;13.18;9.63;;;4.60;96.70;;;;;;4967242;28;20110;-71
2021/12/20 00:29:41;;;;;;;16.30;9.60;;;4.70;96.70;;;;;;4956749;28;20042;-71
2021/12/20 00:32:09;;;;;;;15.05;9.70;;;4.80;96.70;;;;;;4970286;28;20861;-71
2021/12/20 00:34:37;;;;;;;17.33;10.73;;;4.70;96.70;;;;;;4973944;28;20445;-71
2021/12/20 00:40:19;;;;;;;15.65;11.13;;;4.80;96.70;;;;;;4970730;28;20057;-71
2021/12/20 00:42:42;;;;;;;16.13;10.40;;;4.90;96.70;;;;;;4972992;28;20572;-71
2021/12/20 00:45:12;;;;;;;15.18;11.10;;;4.80;96.70;;;;;;4950057;28;20059;-72
2021/12/20 00:47:41;;;;;;;14.15;10.32;;;4.90;96.70;;;;;;4948222;28;20046;-71
2021/12/20 00:50:11;;;;;;;16.95;10.05;;;5.00;96.70;;;;;;4946532;28;21046;-72
2021/12/20 00:52:40;;;;;;;13.00;10.20;;;5.00;96.70;;;;;;4951944;28;20047;-72
2021/12/20 00:55:09;;;;;;;13.73;9.70;;;5.00;96.70;;;;;;4952380;28;20539;-72
2021/12/20 00:57:38;;;;;;;13.73;10.30;;;5.10;96.70;;;;;;4933713;28;20074;-72
2021/12/20 01:00:09;;;;;;;13.70;9.45;;;5.10;96.70;;;;;;4931217;28;20510;-71
2021/12/20 01:02:37;;;;;;;12.55;8.82;;;5.20;96.70;;;;;;4948150;28;20058;-72
2021/12/20 01:05:06;;;;;;;12.88;9.27;;;5.00;96.70;;;;;;4949781;28;20051;-70
2021/12/20 01:07:34;;;;;;;13.10;8.98;;;4.90;96.70;;;;;;4954816;28;20112;-70
2021/12/20 01:10:06;;;;;;;12.68;8.60;;;5.00;96.70;;;;;;4949911;28;20110;-70
2021/12/20 01:12:47;;;;;;;12.63;8.90;;;5.00;96.70;;;;;;4949779;28;20106;-70
2021/12/20 01:15:19;;;;;;;15.23;10.25;;;5.00;96.70;;;;;;4952445;28;20039;-70
2021/12/20 01:17:47;;;;;;;14.38;9.30;;;5.00;96.70;;;;;;4948428;28;20103;-70
2021/12/20 01:20:16;;;;;;;12.65;9.45;;;4.90;96.70;;;;;;4953297;28;20050;-70
2021/12/20 01:22:45;;;;;;;14.40;9.48;;;5.00;96.70;;;;;;4942441;28;20090;-70
2021/12/20 01:25:14;;;;;;;14.05;9.73;;;5.00;96.70;;;;;;4951672;28;20468;-70
2021/12/20 01:27:43;;;;;;;15.40;10.05;;;5.00;96.70;;;;;;4949774;28;20161;-71
2021/12/20 01:30:13;;;;;;;13.48;9.25;;;5.00;96.70;;;;;;4953821;28;20038;-70
2021/12/20 01:32:43;;;;;;;16.02;10.68;;;5.00;96.70;;;;;;4949903;28;20529;-70
2021/12/20 01:35:12;;;;;;;14.90;10.23;;;5.10;96.70;;;;;;4952252;28;20071;-71
2021/12/20 01:37:41;;;;;;;17.30;10.85;;;5.10;96.70;;;;;;4935160;28;20047;-70
2021/12/20 01:40:12;;;;;;;14.93;11.15;;;5.00;96.70;;;;;;4952644;28;20141;-70
2021/12/20 01:42:42;;;;;;;15.93;10.45;;;5.00;96.70;;;;;;4953675;28;20512;-70
2021/12/20 01:45:13;;;;;;;15.80;10.38;;;5.00;96.70;;;;;;4939521;28;20130;-71
2021/12/20 01:47:46;;;;;;;15.95;10.82;;;5.10;96.70;;;;;;4955629;28;20047;-70
2021/12/20 01:50:41;;;;;;;15.32;10.90;;;5.10;96.70;;;;;;4956467;28;20058;-70
2021/12/20 01:53:10;;;;;;;16.40;11.00;;;5.10;96.70;;;;;;4956068;28;20954;-70
2021/12/20 01:55:39;;;;;;;14.65;10.48;;;5.20;96.70;;;;;;4955937;28;20452;-70
2021/12/20 01:58:07;;;;;;;14.13;10.10;;;5.20;96.70;;;;;;4958450;28;20057;-70
2021/12/20 02:00:37;;;;;;;15.68;10.13;;;5.20;96.70;;;;;;4955213;28;20137;-70
2021/12/20 02:03:08;;;;;;;16.70;10.38;;;5.10;96.70;;;;;;4955198;28;20137;-70
2021/12/20 02:08:23;;;;;;;15.43;10.40;;;5.20;96.70;;;;;;4953813;28;20050;-70
2021/12/20 02:10:55;;;;;;;14.63;10.03;;;5.20;96.70;;;;;;4953998;28;20087;-70
2021/12/20 02:13:27;;;;;;;15.88;10.13;;;5.30;96.70;;;;;;4951723;28;20732;-70
2021/12/20 02:15:56;;;;;;;14.98;10.48;;;5.30;96.70;;;;;;4950876;28;20828;-70
2021/12/20 02:18:26;;;;;;;15.57;11.48;;;5.30;96.70;;;;;;4953607;28;20047;-70
2021/12/20 02:20:57;;;;;;;15.55;9.85;;;5.20;96.70;;;;;;4949373;28;20589;-70
2021/12/20 02:23:26;;;;;;;13.43;9.57;;;5.20;96.70;;;;;;4956140;28;20093;-70
2021/12/20 02:25:55;;;;;;;14.98;9.68;;;5.30;96.70;;;;;;4951701;28;20126;-70
2021/12/20 02:28:24;;;;;;;14.30;9.73;;;5.30;96.70;;;;;;4964914;28;20149;-70
2021/12/20 02:36:55;;;;;;;13.77;9.80;;;5.30;96.70;;;;;;4940869;28;20040;-70
2021/12/20 02:39:20;;;;;;;13.75;10.02;;;5.30;96.70;;;;;;4953750;28;20146;-72
2021/12/20 02:41:48;;;;;;;14.57;9.88;;;5.30;96.70;;;;;;4955237;28;20121;-70
2021/12/20 02:44:18;;;;;;;13.93;10.10;;;5.30;96.70;;;;;;4959275;28;20039;-70
2021/12/20 02:46:52;;;;;;;13.77;10.15;;;5.30;96.70;;;;;;4974867;28;20084;-70
2021/12/20 02:49:22;;;;;;;14.02;9.65;;;5.30;96.70;;;;;;4972170;28;20057;-70
2021/12/20 02:51:53;;;;;;;12.25;8.95;;;5.30;96.70;;;;;;4960801;28;20052;-70
2021/12/20 02:54:22;;;;;;;11.63;9.30;;;5.40;96.70;;;;;;4955432;28;20043;-70
2021/12/20 02:56:51;;;;;;;13.38;9.38;;;5.40;96.70;;;;;;4970849;28;20580;-70
2021/12/20 02:59:19;;;;;;;14.25;9.50;;;5.40;96.70;;;;;;4975269;28;20031;-70
2021/12/20 03:01:50;;;;;;;11.55;9.23;;;5.30;96.70;;;;;;4959489;28;20055;-70
2021/12/20 03:04:19;;;;;;;13.05;8.77;;;5.30;96.70;;;;;;4952843;28;20054;-71
2021/12/20 03:06:49;;;;;;;12.45;9.25;;;5.30;96.70;;;;;;4962111;28;20049;-70
2021/12/20 03:09:22;;;;;;;12.80;8.93;;;5.40;96.70;;;;;;4955488;28;20073;-70
2021/12/20 03:11:51;;;;;;;14.18;9.45;;;5.40;96.70;;;;;;4975429;28;20137;-70
2021/12/20 03:14:26;;;;;;;11.95;8.73;;;5.40;96.70;;;;;;4972014;28;20046;-70
2021/12/20 03:16:54;;;;;;;13.70;9.07;;;5.40;96.70;;;;;;4958981;28;20042;-70
2021/12/20 03:19:24;;;;;;;14.32;9.60;;;5.40;96.70;;;;;;4971954;28;20169;-70
2021/12/20 03:21:53;;;;;;;10.93;8.63;;;5.50;96.70;;;;;;4956958;28;20046;-70
2021/12/20 03:24:23;;;;;;;12.95;9.50;;;5.60;96.70;;;;;;4958584;28;20182;-70
2021/12/20 03:26:51;;;;;;;12.35;9.02;;;5.50;96.70;;;;;;4973602;28;20739;-70
2021/12/20 03:29:19;;;;;;;12.85;8.85;;;5.50;96.70;;;;;;4971847;28;20157;-70
2021/12/20 03:31:48;;;;;;;13.07;8.48;;;5.50;96.70;;;;;;4970202;28;20042;-70
2021/12/20 03:34:17;;;;;;;12.38;9.60;;;5.50;96.70;;;;;;4958008;28;20047;-70
2021/12/20 03:36:45;;;;;;;13.50;9.50;;;5.60;96.70;;;;;;4976798;28;20563;-70
2021/12/20 03:39:14;;;;;;;11.50;9.13;;;5.60;96.70;;;;;;4972479;28;20494;-70
2021/12/20 03:41:44;;;;;;;12.57;9.27;;;5.60;96.70;;;;;;4975484;28;20449;-70
2021/12/20 03:44:12;;;;;;;13.60;9.32;;;5.60;96.70;;;;;;4972009;28;20501;-70
2021/12/20 03:46:40;;;;;;;14.23;9.57;;;5.60;96.70;;;;;;4972116;28;20067;-70
2021/12/20 03:49:09;;;;;;;14.10;9.82;;;5.60;96.70;;;;;;4954647;28;20053;-70
2021/12/20 03:51:37;;;;;;;13.35;9.38;;;5.60;96.70;;;;;;4955250;28;20070;-70
2021/12/20 03:54:05;;;;;;;12.63;9.63;;;5.50;96.70;;;;;;4975501;28;20061;-71
2021/12/20 03:56:34;;;;;;;14.77;10.00;;;5.50;96.70;;;;;;4938126;28;20504;-70
2021/12/20 03:59:03;;;;;;;13.48;9.90;;;5.50;96.70;;;;;;4954379;28;20588;-70
2021/12/20 04:01:32;;;;;;;13.10;9.90;;;5.50;96.70;;;;;;4967958;28;20058;-70
2021/12/20 04:04:01;;;;;;;14.15;9.32;;;5.50;96.70;;;;;;4957013;28;20043;-70
2021/12/20 04:06:31;;;;;;;13.60;10.48;;;5.50;96.70;;;;;;4954932;28;20057;-70
2021/12/20 04:08:59;;;;;;;14.02;10.70;;;5.60;96.70;;;;;;4953492;28;20053;-70
2021/12/20 04:11:28;;;;;;;15.40;10.85;;;5.60;96.70;;;;;;4971093;28;20430;-70
2021/12/20 04:13:56;;;;;;;17.20;12.43;;;5.60;96.70;;;;;;4954028;28;20049;-70
2021/12/20 04:16:26;;;;;;;18.95;12.25;;;5.60;96.70;;;;;;4953887;28;20042;-70
2021/12/20 04:18:54;;;;;;;16.00;11.52;;;5.60;96.70;;;;;;4957017;28;20499;-70
2021/12/20 04:21:22;;;;;;;14.95;11.07;;;5.50;96.70;;;;;;4954842;28;20074;-70
2021/12/20 04:23:50;;;;;;;15.98;12.07;;;5.50;96.70;;;;;;4954432;28;20097;-70
2021/12/20 04:26:19;;;;;;;16.20;11.52;;;5.60;96.70;;;;;;4972446;28;20054;-70
2021/12/20 04:28:47;;;;;;;15.82;11.23;;;5.60;96.70;;;;;;4950079;28;20378;-70
2021/12/20 04:31:15;;;;;;;17.40;12.60;;;5.60;96.70;;;;;;4972923;28;20038;-70
2021/12/20 04:33:45;;;;;;;16.38;12.48;;;5.60;96.70;;;;;;4953645;28;20050;-70
2021/12/20 04:36:13;;;;;;;17.25;11.77;;;5.60;96.70;;;;;;4956803;28;20043;-70
2021/12/20 04:38:41;;;;;;;16.40;12.32;;;5.60;96.70;;;;;;4950444;28;20062;-70
2021/12/20 04:41:09;;;;;;;16.38;12.18;;;5.60;96.70;;;;;;4970697;28;20047;-70
2021/12/20 04:43:37;;;;;;;16.67;12.13;;;5.70;96.70;;;;;;4961094;28;20524;-70
2021/12/20 04:46:06;;;;;;;19.60;12.40;;;5.80;96.70;;;;;;4952392;28;20053;-70
2021/12/20 04:48:34;;;;;;;18.33;12.80;;;5.80;96.70;;;;;;4952075;28;20551;-70
2021/12/20 04:51:03;;;;;;;17.67;12.63;;;5.70;96.70;;;;;;4976579;28;20064;-70
2021/12/20 04:53:31;;;;;;;16.42;12.55;;;5.70;96.70;;;;;;4956348;28;20409;-70
2021/12/20 04:55:59;;;;;;;18.35;13.15;;;5.80;96.70;;;;;;4952079;28;20122;-70
2021/12/20 04:58:28;;;;;;;19.52;13.25;;;5.80;96.70;;;;;;4951382;28;20394;-70
2021/12/20 05:00:56;;;;;;;18.55;13.25;;;5.80;96.70;;;;;;4970299;28;20137;-70
2021/12/20 05:03:24;;;;;;;19.00;12.98;;;5.80;96.70;;;;;;4948884;28;20058;-71
2021/12/20 05:05:52;;;;;;;19.00;13.02;;;5.80;96.70;;;;;;4952310;28;20054;-70
2021/12/20 05:08:22;;;;;;;18.40;13.48;;;5.80;96.70;;;;;;4968058;28;20031;-70
2021/12/20 05:10:50;;;;;;;17.88;13.77;;;5.80;96.70;;;;;;4942251;28;20571;-70
2021/12/20 05:13:18;;;;;;;19.63;14.43;;;5.80;96.70;;;;;;4952212;28;20113;-70
2021/12/20 05:15:46;;;;;;;20.05;14.95;;;5.80;96.70;;;;;;4977299;28;20363;-70
2021/12/20 05:18:14;;;;;;;22.23;15.38;;;5.90;96.70;;;;;;4956270;28;20663;-70
2021/12/20 05:20:42;;;;;;;21.13;14.65;;;5.90;96.70;;;;;;4974419;28;20141;-70
2021/12/20 05:23:11;;;;;;;19.27;14.88;;;5.90;96.70;;;;;;4941165;28;20568;-70
2021/12/20 05:25:41;;;;;;;20.00;14.73;;;5.90;96.70;;;;;;4940217;28;20066;-70
2021/12/20 05:28:09;;;;;;;20.45;15.43;;;5.90;96.70;;;;;;4973243;28;20315;-70
2021/12/20 05:30:37;;;;;;;23.20;16.67;;;5.90;96.70;;;;;;4958119;28;20042;-70
2021/12/20 05:33:05;;;;;;;25.85;17.77;;;5.90;96.70;;;;;;4971326;28;20053;-70
2021/12/20 05:35:34;;;;;;;23.38;16.58;;;5.90;96.70;;;;;;4972618;28;20035;-70
2021/12/20 05:38:02;;;;;;;22.90;16.35;;;6.00;96.70;;;;;;4973798;28;20108;-69
2021/12/20 05:40:30;;;;;;;22.83;16.13;;;6.00;96.70;;;;;;4939589;28;20580;-70
2021/12/20 05:43:00;;;;;;;22.35;17.08;;;6.00;96.70;;;;;;4958487;28;20449;-70
2021/12/20 05:45:28;;;;;;;23.70;16.73;;;6.00;96.70;;;;;;4976102;28;20058;-71
2021/12/20 05:47:56;;;;;;;21.38;15.95;;;6.00;96.70;;;;;;4958361;28;20520;-71
2021/12/20 05:50:24;;;;;;;24.60;17.27;;;6.00;96.70;;;;;;4957860;28;20122;-71
2021/12/20 05:52:53;;;;;;;21.85;16.45;;;6.00;96.70;;;;;;4959317;28;20049;-71
2021/12/20 05:55:21;;;;;;;20.73;15.57;;;6.00;96.70;;;;;;4939804;28;20031;-71
2021/12/20 05:57:49;;;;;;;21.58;16.17;;;6.00;96.70;;;;;;4959410;28;20133;-71
2021/12/20 06:00:21;;;;;;;20.60;16.00;;;6.00;96.70;;;;;;4972698;28;20043;-71
2021/12/20 06:02:51;;;;;;;20.48;15.93;;;6.00;96.70;;;;;;4970684;28;20047;-71
2021/12/20 06:05:20;;;;;;;21.48;15.88;;;6.00;96.70;;;;;;4953725;28;20132;-72
2021/12/20 06:07:48;;;;;;;20.48;15.50;;;6.10;96.70;;;;;;4939838;28;20137;-71
2021/12/20 06:10:18;;;;;;;23.58;16.50;;;6.10;96.70;;;;;;4950973;28;20054;-71
2021/12/20 06:12:47;;;;;;;21.30;15.38;;;6.10;96.70;;;;;;4973713;28;20124;-71
2021/12/20 06:15:15;;;;;;;23.00;16.55;;;6.10;96.70;;;;;;4956633;28;20441;-70
2021/12/20 06:17:44;;;;;;;20.05;16.45;;;6.10;96.70;;;;;;4972191;28;20160;-70
2021/12/20 06:20:13;;;;;;;22.67;16.83;;;6.10;96.70;;;;;;4975421;28;20110;-71
2021/12/20 06:22:42;;;;;;;20.55;15.85;;;6.10;96.70;;;;;;4975193;28;20050;-71
2021/12/20 06:25:11;;;;;;;23.55;17.33;;;6.10;96.70;;;;;;4969262;28;20050;-70
2021/12/20 06:27:40;;;;;;;22.60;16.45;;;6.10;96.70;;;;;;4972389;28;20508;-70
2021/12/20 06:30:09;;;;;;;22.35;16.45;;;6.10;96.70;;;;;;4952232;28;20042;-70
2021/12/20 06:32:38;;;;;;;20.13;15.55;;;6.10;96.70;;;;;;4971560;28;20050;-71
2021/12/20 06:35:28;;;;;;;20.73;14.90;;;6.10;96.70;;;;;;4971996;28;20043;-71
2021/12/20 06:38:00;;;;;;;23.65;16.20;;;6.10;96.70;;;;;;4973003;28;20060;-70
2021/12/20 06:40:30;;;;;;;21.70;15.82;;;6.10;96.70;;;;;;4937734;28;20515;-71
2021/12/20 06:42:58;;;;;;;21.33;16.17;;;6.20;96.70;;;;;;4968526;28;20466;-70
2021/12/20 06:45:30;;;;;;;22.02;16.23;;;6.20;96.70;;;;;;4946346;28;20046;-71
2021/12/20 06:47:58;;;;;;;26.05;18.33;;;6.20;96.70;;;;;;4972719;28;20690;-71
2021/12/20 06:50:28;;;;;;;25.42;17.15;;;6.20;96.70;;;;;;4977346;28;20050;-71
2021/12/20 06:52:56;;;;;;;23.27;17.02;;;6.20;96.70;;;;;;4955693;28;20420;-71
2021/12/20 06:55:24;;;;;;;24.17;17.83;;;6.20;96.70;;;;;;4971277;28;20125;-71
2021/12/20 06:57:53;;;;;;;25.95;18.63;;;6.20;96.70;;;;;;4975619;28;20062;-71
2021/12/20 07:00:23;;;;;;;26.13;20.80;;;6.20;96.70;;;;;;4969544;28;20467;-71
2021/12/20 07:02:51;;;;;;;28.13;20.75;;;6.30;96.70;;;;;;4958910;28;20046;-71
2021/12/20 07:05:23;;;;;;;25.13;19.67;;;6.20;96.70;;;;;;4955890;28;20054;-70
2021/12/20 07:07:52;;;;;;;27.52;20.38;;;6.30;96.70;;;;;;4952954;28;20046;-70
2021/12/20 07:10:21;;;;;;;28.92;20.45;;;6.30;96.70;;;;;;4952768;28;20064;-70
2021/12/20 07:12:51;;;;;;;27.10;19.27;;;6.30;96.70;;;;;;4958884;28;20070;-70
2021/12/20 07:15:20;;;;;;;25.40;18.83;;;6.20;96.70;;;;;;4959414;28;20121;-71
2021/12/20 07:17:48;;;;;;;27.77;18.70;;;6.30;96.70;;;;;;4978885;28;20050;-70
2021/12/20 07:20:18;;;;;;;26.90;18.73;;;6.30;96.70;;;;;;4955188;28;20516;-71
2021/12/20 07:22:46;;;;;;;24.55;18.52;;;6.30;96.70;;;;;;4956916;28;20129;-71
2021/12/20 07:25:16;;;;;;;23.88;18.80;;;6.30;96.70;;;;;;4973831;28;20038;-70
2021/12/20 07:27:47;;;;;;;24.15;19.05;;;6.30;96.70;;;;;;4968346;28;20527;-71
2021/12/20 07:30:15;;;;;;;30.52;20.23;;;6.40;96.70;;;;;;4975388;28;20050;-71
2021/12/20 07:32:44;;;;;;;25.58;18.83;;;6.40;96.70;;;;;;4955768;28;20540;-71
2021/12/20 07:35:13;;;;;;;26.17;19.35;;;6.40;96.70;;;;;;4957441;28;20047;-71
2021/12/20 07:37:42;;;;;;;25.15;19.38;;;6.50;96.70;;;;;;4958453;28;20042;-71
2021/12/20 07:40:12;;;;;;;28.20;18.65;;;6.50;96.70;;;;;;4958490;28;20561;-71
2021/12/20 07:42:41;;;;;;;30.70;20.38;;;6.50;96.70;;;;;;4956727;28;20117;-71
2021/12/20 07:45:10;;;;;;;30.27;20.55;;;6.40;96.70;;;;;;4959010;28;20053;-71
2021/12/20 07:47:47;;;;;;;28.13;19.23;;;6.40;96.70;;;;;;4967917;28;20043;-71
2021/12/20 07:50:16;;;;;;;34.97;19.92;;;6.50;96.70;;;;;;4971518;28;20121;-71
2021/12/20 07:52:45;;;;;;;29.08;19.42;;;6.50;96.70;;;;;;4971823;28;20161;-71
2021/12/20 07:55:13;;;;;;;30.38;20.67;;;6.60;96.70;;;;;;4957629;28;20038;-70
2021/12/20 07:57:43;;;;;;;30.45;20.40;;;6.60;96.70;;;;;;4946150;28;20456;-71
2021/12/20 08:00:13;;;;;;;32.67;22.45;;;6.60;96.70;;;;;;4954574;28;20210;-71
2021/12/20 08:02:41;;;;;;;35.05;23.27;;;6.70;96.70;;;;;;4975330;28;20049;-71
2021/12/20 08:05:10;;;;;;;32.08;22.63;;;6.70;96.70;;;;;;4969976;28;20069;-71
2021/12/20 08:07:38;;;;;;;27.48;20.65;;;6.70;96.70;;;;;;4953200;28;20642;-70
2021/12/20 08:10:08;;;;;;;33.78;20.55;;;6.80;96.70;;;;;;4940126;28;20564;-71
2021/12/20 08:12:36;;;;;;;27.02;20.02;;;6.80;96.70;;;;;;4972919;28;20049;-72
2021/12/20 08:15:06;;;;;;;29.70;19.63;;;6.80;96.70;;;;;;4975824;28;20072;-71
2021/12/20 08:17:35;;;;;;;30.00;19.52;;;6.80;96.70;;;;;;4967401;28;20074;-71
2021/12/20 08:20:04;;;;;;;30.90;19.45;;;6.80;96.70;;;;;;4972344;28;20150;-71
2021/12/20 08:22:33;;;;;;;29.23;20.65;;;6.70;96.70;;;;;;4956932;28;20050;-70
2021/12/20 08:25:01;;;;;;;26.13;18.52;;;6.70;96.70;;;;;;4952623;28;20042;-71
2021/12/20 08:27:30;;;;;;;29.40;19.58;;;6.80;96.70;;;;;;4971059;28;20038;-72
2021/12/20 08:29:58;;;;;;;26.63;17.90;;;6.80;96.70;;;;;;4958090;28;20102;-72
2021/12/20 08:32:28;;;;;;;24.58;18.30;;;6.80;96.70;;;;;;4958063;28;20042;-72
2021/12/20 08:34:57;;;;;;;27.45;19.23;;;6.80;96.70;;;;;;4972905;28;20448;-70
2021/12/20 08:37:25;;;;;;;27.98;19.83;;;6.90;96.70;;;;;;4972554;28;20072;-70
2021/12/20 08:39:53;;;;;;;27.58;18.92;;;6.90;96.70;;;;;;4970011;28;20042;-71
2021/12/20 08:42:21;;;;;;;28.38;18.27;;;7.00;96.70;;;;;;4953675;28;20047;-70
2021/12/20 08:44:49;;;;;;;27.25;18.67;;;7.00;96.70;;;;;;4973361;28;20528;-71
2021/12/20 08:47:18;;;;;;;25.02;18.38;;;7.10;96.70;;;;;;4957479;28;20042;-71
2021/12/20 08:49:48;;;;;;;25.70;18.35;;;7.10;96.70;;;;;;4958935;28;20038;-70
2021/12/20 08:52:16;;;;;;;27.00;18.65;;;7.20;96.70;;;;;;4957767;28;20495;-70
2021/12/20 08:54:45;;;;;;;24.73;17.70;;;7.20;96.70;;;;;;4975334;28;20046;-70
2021/12/20 08:57:13;;;;;;;26.27;18.50;;;7.40;96.70;;;;;;4961556;28;20130;-70
2021/12/20 08:59:41;;;;;;;26.13;18.77;;;7.40;96.70;;;;;;4972109;28;20035;-70
2021/12/20 09:02:11;;;;;;;27.33;18.88;;;7.50;96.70;;;;;;4962644;28;20058;-69
2021/12/20 09:04:39;;;;;;;26.60;19.15;;;7.50;96.70;;;;;;4972520;28;20035;-69
2021/12/20 09:07:14;;;;;;;27.70;18.17;;;7.60;96.70;;;;;;4975700;28;20121;-69
2021/12/20 09:09:46;;;;;;;24.23;18.30;;;7.70;96.70;;;;;;4956171;28;20101;-70
2021/12/20 09:12:15;;;;;;;24.92;18.33;;;7.70;96.70;;;;;;4974020;28;20074;-69
2021/12/20 09:14:43;;;;;;;24.42;18.08;;;7.80;96.70;;;;;;4962958;28;20121;-70
2021/12/20 09:17:11;;;;;;;25.73;17.45;;;7.90;96.70;;;;;;4976577;28;20306;-70
2021/12/20 09:19:39;;;;;;;23.05;17.90;;;7.90;96.70;;;;;;4958000;28;20065;-69
2021/12/20 09:22:11;;;;;;;26.58;16.73;;;7.90;96.70;;;;;;4981052;28;20105;-70
2021/12/20 09:24:41;;;;;;;25.17;17.90;;;8.00;96.70;;;;;;4955769;28;20043;-70
2021/12/20 09:27:09;;;;;;;24.50;17.60;;;8.00;96.70;;;;;;4975044;28;20158;-70
2021/12/20 09:29:38;;;;;;;23.98;16.98;;;8.00;96.70;;;;;;4972787;28;20130;-70
2021/12/20 09:32:06;;;;;;;21.50;16.58;;;8.10;96.70;;;;;;4976330;28;20386;-70
2021/12/20 09:34:35;;;;;;;23.45;16.02;;;8.10;96.70;;;;;;4961964;28;20050;-70
2021/12/20 09:37:07;;;;;;;21.63;16.27;;;8.20;96.70;;;;;;4973970;28;20513;-71
2021/12/20 09:39:38;;;;;;;21.45;17.67;;;8.20;96.70;;;;;;4972267;28;20431;-70
2021/12/20 09:42:12;;;;;;;22.30;17.50;;;8.30;96.70;;;;;;4974517;28;20263;-72
2021/12/20 09:44:43;;;;;;;23.27;18.17;;;8.30;96.70;;;;;;4953375;28;20043;-72
2021/12/20 09:47:12;;;;;;;24.95;18.42;;;8.40;96.70;;;;;;4956980;28;20568;-73
2021/12/20 09:49:41;;;;;;;28.50;18.42;;;8.40;96.70;;;;;;4954358;28;20118;-71
2021/12/20 09:52:09;;;;;;;24.15;17.95;;;8.50;96.70;;;;;;4957071;28;20603;-72
2021/12/20 09:54:39;;;;;;;27.45;18.45;;;8.60;96.70;;;;;;4953555;28;20039;-73
2021/12/20 09:57:10;;;;;;;22.40;17.58;;;8.60;96.70;;;;;;4954260;28;20038;-73
2021/12/20 09:59:39;;;;;;;24.23;18.50;;;8.60;96.70;;;;;;4957358;28;20394;-72
2021/12/20 10:02:08;;;;;;;23.25;17.25;;;8.70;96.70;;;;;;4939698;28;20355;-73
2021/12/20 10:04:36;;;;;;;21.65;17.05;;;8.80;96.70;;;;;;4941405;28;20066;-72
2021/12/20 10:07:05;;;;;;;24.35;17.60;;;8.90;96.70;;;;;;4948593;28;20058;-72
2021/12/20 10:09:35;;;;;;;20.73;15.02;;;8.90;96.70;;;;;;4957635;28;20066;-72
2021/12/20 10:12:16;;;;;;;20.80;15.68;;;8.90;96.70;;;;;;4950083;28;20039;-72
2021/12/20 10:15:07;;;;;;;23.23;16.38;;;8.90;96.70;;;;;;4950821;28;20043;-72
2021/12/20 10:17:51;;;;;;;22.27;16.58;;;9.00;96.70;;;;;;4949270;28;20493;-72
2021/12/20 10:20:22;;;;;;;20.17;15.77;;;9.00;96.70;;;;;;4949687;28;20231;-72
2021/12/20 10:22:51;;;;;;;25.27;16.15;;;9.00;96.70;;;;;;4955224;28;20038;-72
2021/12/20 10:25:24;;;;;;;22.45;16.65;;;9.00;96.70;;;;;;4938905;28;20043;-72
2021/12/20 10:28:02;;;;;;;26.92;17.33;;;9.10;96.70;;;;;;4936335;28;20055;-70
2021/12/20 10:30:38;;;;;;;25.35;17.30;;;9.10;96.70;;;;;;4953991;28;20078;-71
2021/12/20 10:33:10;;;;;;;23.58;17.52;;;9.10;96.70;;;;;;4953219;28;20050;-71
2021/12/20 10:35:43;;;;;;;19.67;16.60;;;9.10;96.70;;;;;;4951933;28;20502;-72
2021/12/20 10:38:24;;;;;;;26.95;20.27;;;9.10;96.70;;;;;;4951298;28;20057;-71
2021/12/20 10:40:54;;;;;;;35.17;23.75;;;9.20;96.70;;;;;;4952119;28;20039;-71
2021/12/20 10:43:28;;;;;;;23.80;17.73;;;9.20;96.70;;;;;;4955503;28;20057;-71
2021/12/20 10:45:56;;;;;;;26.30;19.48;;;9.20;96.70;;;;;;4970068;28;20441;-70
2021/12/20 10:48:44;;;;;;;34.05;19.92;;;9.20;96.70;;;;;;4975879;28;20085;-70
2021/12/20 10:51:22;;;;;;;21.02;17.52;;;9.20;96.70;;;;;;4940616;28;20105;-71
2021/12/20 10:53:58;;;;;;;21.63;15.93;;;9.20;96.70;;;;;;4955158;28;20050;-71
2021/12/20 10:56:27;;;;;;;22.52;16.85;;;9.20;96.70;;;;;;4976864;28;20070;-72
2021/12/20 10:58:58;;;;;;;24.27;17.63;;;9.30;96.70;;;;;;4973865;28;20530;-72
2021/12/20 11:04:21;;;;;;;23.80;17.05;;;9.40;96.70;;;;;;4979321;28;20088;-70
2021/12/20 11:09:27;;;;;;;23.30;16.65;;;9.60;96.70;;;;;;4972229;28;20137;-72
2021/12/20 11:11:57;;;;;;;26.80;16.67;;;9.60;96.70;;;;;;4957979;28;20524;-71
2021/12/20 11:14:30;;;;;;;21.73;17.05;;;9.70;96.70;;;;;;4972357;28;20046;-71
2021/12/20 11:17:00;;;;;;;23.60;17.77;;;9.70;96.70;;;;;;4977701;28;20097;-71
2021/12/20 11:19:30;;;;;;;22.20;17.40;;;9.70;96.70;;;;;;4960346;28;20073;-71
2021/12/20 11:22:09;;;;;;;21.85;17.00;;;9.70;96.70;;;;;;4958928;28;20410;-72
2021/12/20 11:24:41;;;;;;;26.15;16.60;;;9.70;96.70;;;;;;4951692;28;20177;-72
2021/12/20 11:27:14;;;;;;;24.33;17.63;;;9.70;96.70;;;;;;4972111;28;20038;-70
2021/12/20 11:29:47;;;;;;;23.25;17.05;;;9.70;96.70;;;;;;4973858;28;20052;-71
2021/12/20 11:32:17;;;;;;;22.67;16.50;;;9.70;96.70;;;;;;4980859;28;20104;-71
2021/12/20 11:34:46;;;;;;;21.15;15.88;;;9.70;96.70;;;;;;4970181;28;20042;-71
2021/12/20 11:37:16;;;;;;;22.08;16.63;;;9.70;96.70;;;;;;4973214;28;20042;-71
2021/12/20 11:39:45;;;;;;;21.90;15.75;;;9.70;96.70;;;;;;4957720;28;20088;-71
2021/12/20 11:42:14;;;;;;;21.50;16.63;;;9.70;96.70;;;;;;4957995;28;20320;-71
2021/12/20 11:44:47;;;;;;;20.45;16.05;;;9.70;96.70;;;;;;4956420;28;20061;-71
2021/12/20 11:47:21;;;;;;;20.42;15.95;;;9.70;96.70;;;;;;4977858;28;20050;-71
2021/12/20 11:49:57;;;;;;;24.60;17.35;;;9.70;96.70;;;;;;4960650;28;20881;-71
2021/12/20 11:52:30;;;;;;;20.92;16.95;;;9.70;96.70;;;;;;4958242;28;20133;-71
2021/12/20 11:54:59;;;;;;;25.40;18.10;;;9.70;96.70;;;;;;4958700;28;20504;-71
2021/12/20 11:57:40;;;;;;;19.73;16.13;;;9.70;96.70;;;;;;4959204;28;20408;-71
2021/12/20 12:00:22;;;;;;;22.65;15.90;;;9.80;96.70;;;;;;4964025;28;20137;-72
2021/12/20 12:02:53;;;;;;;21.60;17.15;;;9.80;96.70;;;;;;4975437;28;20584;-71
2021/12/20 12:05:31;;;;;;;21.73;15.73;;;9.90;96.70;;;;;;4960923;28;20099;-71
2021/12/20 12:08:31;;;;;;;23.20;17.20;;;9.90;96.70;;;;;;4973512;28;20050;-71
2021/12/20 12:11:16;;;;;;;27.42;19.83;;;10.00;96.70;;;;;;4955021;28;20062;-71
2021/12/20 12:14:08;;;;;;;24.08;18.40;;;10.10;96.70;;;;;;4976561;28;20058;-71
2021/12/20 12:16:58;;;;;;;27.42;19.45;;;10.20;96.70;;;;;;4973669;28;20050;-71
2021/12/20 12:19:41;;;;;;;25.30;18.52;;;10.30;96.70;;;;;;4975554;28;20101;-71
2021/12/20 12:22:36;;;;;;;22.73;18.02;;;10.30;96.70;;;;;;4957870;28;20058;-71
2021/12/20 12:25:08;;;;;;;23.40;17.45;;;10.40;96.70;;;;;;4972101;28;20046;-71
2021/12/20 12:27:41;;;;;;;29.10;20.02;;;10.60;96.70;;;;;;4955744;28;20053;-71
2021/12/20 12:30:30;;;;;;;26.98;19.98;;;10.90;96.70;;;;;;4976647;28;20162;-72
2021/12/20 12:33:19;;;;;;;31.55;21.60;;;11.20;96.70;;;;;;4957421;28;20460;-72
2021/12/20 12:35:51;;;;;;;25.95;20.10;;;11.50;96.70;;;;;;4951481;28;20061;-71
2021/12/20 12:38:21;;;;;;;25.88;19.23;;;11.70;96.70;;;;;;4970305;28;20307;-71
2021/12/20 12:40:52;;;;;;;23.88;19.15;;;11.90;96.70;;;;;;4933840;28;20106;-71
2021/12/20 12:43:41;;;;;;;27.02;19.40;;;12.10;96.70;;;;;;4969410;28;20466;-71
2021/12/20 12:46:10;;;;;;;26.17;17.80;;;12.30;96.70;;;;;;4977587;28;20061;-72
2021/12/20 12:48:42;;;;;;;25.58;18.92;;;12.40;96.70;;;;;;4957173;28;20104;-71
2021/12/20 12:51:38;;;;;;;24.35;18.00;;;12.60;96.70;;;;;;4968973;28;20112;-71
2021/12/20 12:54:07;;;;;;;26.17;18.55;;;12.70;96.70;;;;;;4975236;28;20505;-71
2021/12/20 12:56:35;;;;;;;26.50;19.25;;;12.80;96.70;;;;;;4967159;28;20117;-71
2021/12/20 12:59:23;;;;;;;25.40;18.85;;;12.90;96.70;;;;;;4965550;28;20068;-72
2021/12/20 13:01:57;;;;;;;25.02;18.48;;;13.00;96.70;;;;;;4974523;28;20035;-71
2021/12/20 13:04:44;;;;;;;;;;;13.10;96.70;;;;;;4958665;28;20073;-71
2021/12/20 13:07:16;;;;;;;23.77;18.08;;;13.20;96.70;;;;;;4956472;28;20056;-72
2021/12/20 13:09:46;;;;;;;25.55;19.13;;;13.40;96.70;;;;;;4953952;28;20054;-72
2021/12/20 13:12:26;;;;;;;24.88;17.73;;;13.70;96.70;;;;;;4967527;28;20039;-71
2021/12/20 13:15:43;;;;;;;22.52;17.80;;;13.90;96.70;;;;;;4951236;28;20050;-72